sensor_id;sensor_type;location;lat;lon;timestamp;P1;durP1;ratioP1;P2;durP2;ratioP2
73456;SDS011;61691;53.072;6.582;2023-02-28T00:00:37;14.77;;;3.20;;
73456;SDS011;61691;53.072;6.582;2023-02-28T00:03:04;15.93;;;3.25;;
73456;SDS011;61691;53.072;6.582;2023-02-28T00:05:31;15.65;;;3.10;;
73456;SDS011;61691;53.072;6.582;2023-02-28T00:07:58;16.08;;;3.30;;
73456;SDS011;61691;53.072;6.582;2023-02-28T00:10:26;14.30;;;3.17;;
73456;SDS011;61691;53.072;6.582;2023-02-28T00:12:56;15.70;;;3.40;;
73456;SDS011;61691;53.072;6.582;2023-02-28T00:15:26;16.17;;;3.15;;
73456;SDS011;61691;53.072;6.582;2023-02-28T00:17:53;15.40;;;3.50;;
73456;SDS011;61691;53.072;6.582;2023-02-28T00:20:20;17.77;;;3.97;;
73456;SDS011;61691;53.072;6.582;2023-02-28T00:22:49;13.55;;;3.40;;
73456;SDS011;61691;53.072;6.582;2023-02-28T00:25:18;18.52;;;3.83;;
73456;SDS011;61691;53.072;6.582;2023-02-28T00:27:48;17.95;;;4.13;;
73456;SDS011;61691;53.072;6.582;2023-02-28T00:30:16;15.40;;;4.10;;
73456;SDS011;61691;53.072;6.582;2023-02-28T00:32:45;20.45;;;4.50;;
73456;SDS011;61691;53.072;6.582;2023-02-28T00:35:12;16.23;;;3.85;;
73456;SDS011;61691;53.072;6.582;2023-02-28T00:37:40;14.85;;;3.65;;
73456;SDS011;61691;53.072;6.582;2023-02-28T00:40:07;18.50;;;4.10;;
73456;SDS011;61691;53.072;6.582;2023-02-28T00:42:36;17.63;;;3.90;;
73456;SDS011;61691;53.072;6.582;2023-02-28T00:45:03;15.48;;;4.00;;
73456;SDS011;61691;53.072;6.582;2023-02-28T00:47:34;17.60;;;4.15;;
73456;SDS011;61691;53.072;6.582;2023-02-28T00:50:02;14.77;;;3.38;;
73456;SDS011;61691;53.072;6.582;2023-02-28T00:52:30;17.77;;;3.53;;
73456;SDS011;61691;53.072;6.582;2023-02-28T00:54:57;14.55;;;3.45;;
73456;SDS011;61691;53.072;6.582;2023-02-28T00:57:23;15.95;;;4.20;;
73456;SDS011;61691;53.072;6.582;2023-02-28T00:59:50;15.57;;;3.97;;
73456;SDS011;61691;53.072;6.582;2023-02-28T01:02:17;16.02;;;4.00;;
73456;SDS011;61691;53.072;6.582;2023-02-28T01:04:46;15.90;;;3.88;;
73456;SDS011;61691;53.072;6.582;2023-02-28T01:07:13;18.27;;;3.78;;
73456;SDS011;61691;53.072;6.582;2023-02-28T01:09:41;15.25;;;4.03;;
73456;SDS011;61691;53.072;6.582;2023-02-28T01:12:08;17.10;;;4.22;;
73456;SDS011;61691;53.072;6.582;2023-02-28T01:14:35;17.23;;;4.32;;
73456;SDS011;61691;53.072;6.582;2023-02-28T01:17:02;20.45;;;4.88;;
73456;SDS011;61691;53.072;6.582;2023-02-28T01:19:29;16.45;;;4.18;;
73456;SDS011;61691;53.072;6.582;2023-02-28T01:21:55;17.90;;;4.55;;
73456;SDS011;61691;53.072;6.582;2023-02-28T01:24:22;17.30;;;3.75;;
73456;SDS011;61691;53.072;6.582;2023-02-28T01:26:49;19.92;;;4.45;;
73456;SDS011;61691;53.072;6.582;2023-02-28T01:29:16;17.15;;;4.38;;
73456;SDS011;61691;53.072;6.582;2023-02-28T01:31:43;16.95;;;4.18;;
73456;SDS011;61691;53.072;6.582;2023-02-28T01:34:09;14.38;;;3.47;;
73456;SDS011;61691;53.072;6.582;2023-02-28T01:36:36;17.25;;;3.67;;
73456;SDS011;61691;53.072;6.582;2023-02-28T01:39:03;18.08;;;4.20;;
73456;SDS011;61691;53.072;6.582;2023-02-28T01:41:31;17.88;;;3.75;;
73456;SDS011;61691;53.072;6.582;2023-02-28T01:46:34;14.40;;;3.33;;
73456;SDS011;61691;53.072;6.582;2023-02-28T01:49:06;14.88;;;3.53;;
73456;SDS011;61691;53.072;6.582;2023-02-28T01:51:55;15.50;;;3.70;;
73456;SDS011;61691;53.072;6.582;2023-02-28T01:54:27;14.60;;;3.42;;
73456;SDS011;61691;53.072;6.582;2023-02-28T01:59:34;15.98;;;4.20;;
73456;SDS011;61691;53.072;6.582;2023-02-28T02:02:06;18.65;;;4.05;;
73456;SDS011;61691;53.072;6.582;2023-02-28T02:04:41;20.40;;;4.03;;
73456;SDS011;61691;53.072;6.582;2023-02-28T02:07:15;15.77;;;4.13;;
73456;SDS011;61691;53.072;6.582;2023-02-28T02:09:43;13.75;;;3.45;;
73456;SDS011;61691;53.072;6.582;2023-02-28T02:12:23;17.98;;;4.07;;
73456;SDS011;61691;53.072;6.582;2023-02-28T02:15:08;14.68;;;3.70;;
73456;SDS011;61691;53.072;6.582;2023-02-28T02:17:44;18.83;;;4.00;;
73456;SDS011;61691;53.072;6.582;2023-02-28T02:29:14;17.85;;;4.20;;
73456;SDS011;61691;53.072;6.582;2023-02-28T02:34:54;19.35;;;5.03;;
73456;SDS011;61691;53.072;6.582;2023-02-28T02:37:52;21.40;;;4.60;;
73456;SDS011;61691;53.072;6.582;2023-02-28T02:40:27;16.83;;;4.40;;
73456;SDS011;61691;53.072;6.582;2023-02-28T02:43:13;19.27;;;5.03;;
73456;SDS011;61691;53.072;6.582;2023-02-28T02:45:47;20.60;;;6.00;;
73456;SDS011;61691;53.072;6.582;2023-02-28T02:48:19;19.90;;;5.13;;
73456;SDS011;61691;53.072;6.582;2023-02-28T02:50:53;18.50;;;4.80;;
73456;SDS011;61691;53.072;6.582;2023-02-28T02:53:33;18.27;;;4.70;;
73456;SDS011;61691;53.072;6.582;2023-02-28T02:56:04;20.48;;;5.40;;
73456;SDS011;61691;53.072;6.582;2023-02-28T02:58:37;17.83;;;5.00;;
73456;SDS011;61691;53.072;6.582;2023-02-28T03:01:08;17.83;;;5.18;;
73456;SDS011;61691;53.072;6.582;2023-02-28T03:03:39;20.25;;;4.97;;
73456;SDS011;61691;53.072;6.582;2023-02-28T03:06:06;21.05;;;6.20;;
73456;SDS011;61691;53.072;6.582;2023-02-28T03:08:35;18.00;;;5.35;;
73456;SDS011;61691;53.072;6.582;2023-02-28T03:11:05;16.95;;;5.70;;
73456;SDS011;61691;53.072;6.582;2023-02-28T03:24:34;18.20;;;5.53;;
73456;SDS011;61691;53.072;6.582;2023-02-28T03:30:24;17.58;;;6.15;;
73456;SDS011;61691;53.072;6.582;2023-02-28T03:33:06;18.85;;;6.15;;
73456;SDS011;61691;53.072;6.582;2023-02-28T03:35:40;16.83;;;4.95;;
73456;SDS011;61691;53.072;6.582;2023-02-28T03:38:16;17.50;;;5.72;;
73456;SDS011;61691;53.072;6.582;2023-02-28T03:40:49;18.02;;;5.80;;
73456;SDS011;61691;53.072;6.582;2023-02-28T03:43:23;18.27;;;5.95;;
73456;SDS011;61691;53.072;6.582;2023-02-28T03:45:54;17.00;;;5.32;;
73456;SDS011;61691;53.072;6.582;2023-02-28T03:48:28;16.23;;;5.03;;
73456;SDS011;61691;53.072;6.582;2023-02-28T03:51:03;17.20;;;4.72;;
73456;SDS011;61691;53.072;6.582;2023-02-28T03:53:36;16.77;;;4.88;;
73456;SDS011;61691;53.072;6.582;2023-02-28T03:56:09;16.10;;;4.82;;
73456;SDS011;61691;53.072;6.582;2023-02-28T03:58:46;16.13;;;4.32;;
73456;SDS011;61691;53.072;6.582;2023-02-28T04:01:39;16.02;;;5.00;;
73456;SDS011;61691;53.072;6.582;2023-02-28T04:04:12;17.23;;;5.33;;
73456;SDS011;61691;53.072;6.582;2023-02-28T04:06:40;18.23;;;5.68;;
73456;SDS011;61691;53.072;6.582;2023-02-28T04:09:09;17.52;;;4.85;;
73456;SDS011;61691;53.072;6.582;2023-02-28T04:11:40;18.23;;;5.10;;
73456;SDS011;61691;53.072;6.582;2023-02-28T04:14:18;16.33;;;5.03;;
73456;SDS011;61691;53.072;6.582;2023-02-28T04:16:45;17.00;;;5.25;;
73456;SDS011;61691;53.072;6.582;2023-02-28T04:19:12;16.67;;;5.68;;
73456;SDS011;61691;53.072;6.582;2023-02-28T04:21:41;18.92;;;5.53;;
73456;SDS011;61691;53.072;6.582;2023-02-28T04:24:17;17.35;;;5.32;;
73456;SDS011;61691;53.072;6.582;2023-02-28T04:26:46;22.67;;;5.55;;
73456;SDS011;61691;53.072;6.582;2023-02-28T04:29:18;17.50;;;5.15;;
73456;SDS011;61691;53.072;6.582;2023-02-28T04:31:46;19.08;;;6.60;;
73456;SDS011;61691;53.072;6.582;2023-02-28T04:34:14;16.20;;;5.40;;
73456;SDS011;61691;53.072;6.582;2023-02-28T04:36:41;18.98;;;5.35;;
73456;SDS011;61691;53.072;6.582;2023-02-28T04:39:08;18.42;;;5.82;;
73456;SDS011;61691;53.072;6.582;2023-02-28T04:41:35;16.90;;;5.30;;
73456;SDS011;61691;53.072;6.582;2023-02-28T04:44:02;16.88;;;5.43;;
73456;SDS011;61691;53.072;6.582;2023-02-28T04:46:29;19.48;;;6.20;;
73456;SDS011;61691;53.072;6.582;2023-02-28T04:48:57;18.88;;;6.43;;
73456;SDS011;61691;53.072;6.582;2023-02-28T04:51:24;16.27;;;5.40;;
73456;SDS011;61691;53.072;6.582;2023-02-28T04:53:51;19.40;;;6.03;;
73456;SDS011;61691;53.072;6.582;2023-02-28T04:56:18;18.83;;;6.72;;
73456;SDS011;61691;53.072;6.582;2023-02-28T04:58:45;17.73;;;6.15;;
73456;SDS011;61691;53.072;6.582;2023-02-28T05:01:20;18.25;;;6.80;;
73456;SDS011;61691;53.072;6.582;2023-02-28T05:03:53;19.90;;;6.28;;
73456;SDS011;61691;53.072;6.582;2023-02-28T05:06:22;19.83;;;6.30;;
73456;SDS011;61691;53.072;6.582;2023-02-28T05:08:50;18.98;;;5.97;;
73456;SDS011;61691;53.072;6.582;2023-02-28T05:11:18;20.48;;;6.93;;
73456;SDS011;61691;53.072;6.582;2023-02-28T05:13:46;20.15;;;8.00;;
73456;SDS011;61691;53.072;6.582;2023-02-28T05:16:13;22.35;;;7.80;;
73456;SDS011;61691;53.072;6.582;2023-02-28T05:18:41;21.83;;;8.35;;
73456;SDS011;61691;53.072;6.582;2023-02-28T05:23:56;20.63;;;8.15;;
73456;SDS011;61691;53.072;6.582;2023-02-28T05:26:25;19.08;;;8.60;;
73456;SDS011;61691;53.072;6.582;2023-02-28T05:28:53;19.30;;;8.00;;
73456;SDS011;61691;53.072;6.582;2023-02-28T05:31:20;20.55;;;8.45;;
73456;SDS011;61691;53.072;6.582;2023-02-28T05:33:47;20.13;;;8.07;;
73456;SDS011;61691;53.072;6.582;2023-02-28T05:36:14;19.80;;;7.72;;
73456;SDS011;61691;53.072;6.582;2023-02-28T05:38:41;19.55;;;7.93;;
73456;SDS011;61691;53.072;6.582;2023-02-28T05:41:08;18.67;;;7.60;;
73456;SDS011;61691;53.072;6.582;2023-02-28T05:43:36;19.95;;;8.20;;
73456;SDS011;61691;53.072;6.582;2023-02-28T05:46:04;20.17;;;8.45;;
73456;SDS011;61691;53.072;6.582;2023-02-28T05:48:36;22.17;;;8.23;;
73456;SDS011;61691;53.072;6.582;2023-02-28T05:51:04;20.40;;;8.50;;
73456;SDS011;61691;53.072;6.582;2023-02-28T05:53:32;19.33;;;8.48;;
73456;SDS011;61691;53.072;6.582;2023-02-28T05:55:59;19.83;;;7.82;;
73456;SDS011;61691;53.072;6.582;2023-02-28T05:58:26;20.23;;;8.13;;
73456;SDS011;61691;53.072;6.582;2023-02-28T06:00:57;19.98;;;8.30;;
73456;SDS011;61691;53.072;6.582;2023-02-28T06:03:25;20.55;;;8.85;;
73456;SDS011;61691;53.072;6.582;2023-02-28T06:05:53;21.27;;;8.60;;
73456;SDS011;61691;53.072;6.582;2023-02-28T06:08:20;20.77;;;8.70;;
73456;SDS011;61691;53.072;6.582;2023-02-28T06:10:47;22.40;;;8.63;;
73456;SDS011;61691;53.072;6.582;2023-02-28T06:13:13;22.05;;;8.48;;
73456;SDS011;61691;53.072;6.582;2023-02-28T06:15:40;23.77;;;9.73;;
73456;SDS011;61691;53.072;6.582;2023-02-28T06:18:07;22.65;;;9.82;;
73456;SDS011;61691;53.072;6.582;2023-02-28T06:20:34;23.00;;;9.07;;
73456;SDS011;61691;53.072;6.582;2023-02-28T06:23:02;22.40;;;9.38;;
73456;SDS011;61691;53.072;6.582;2023-02-28T06:25:29;22.48;;;9.75;;
73456;SDS011;61691;53.072;6.582;2023-02-28T06:27:56;22.92;;;9.63;;
73456;SDS011;61691;53.072;6.582;2023-02-28T06:30:23;23.20;;;9.93;;
73456;SDS011;61691;53.072;6.582;2023-02-28T06:32:54;20.10;;;9.23;;
73456;SDS011;61691;53.072;6.582;2023-02-28T06:35:21;21.92;;;9.30;;
73456;SDS011;61691;53.072;6.582;2023-02-28T06:37:48;22.02;;;9.40;;
73456;SDS011;61691;53.072;6.582;2023-02-28T06:40:15;24.90;;;9.63;;
73456;SDS011;61691;53.072;6.582;2023-02-28T06:42:42;21.88;;;9.20;;
73456;SDS011;61691;53.072;6.582;2023-02-28T06:45:10;21.35;;;8.95;;
73456;SDS011;61691;53.072;6.582;2023-02-28T06:47:38;23.67;;;9.30;;
73456;SDS011;61691;53.072;6.582;2023-02-28T06:50:06;21.35;;;9.68;;
73456;SDS011;61691;53.072;6.582;2023-02-28T06:52:38;22.05;;;9.82;;
73456;SDS011;61691;53.072;6.582;2023-02-28T06:55:06;22.48;;;9.95;;
73456;SDS011;61691;53.072;6.582;2023-02-28T06:57:34;21.73;;;9.85;;
73456;SDS011;61691;53.072;6.582;2023-02-28T07:00:06;22.55;;;9.85;;
73456;SDS011;61691;53.072;6.582;2023-02-28T07:02:35;21.00;;;9.35;;
73456;SDS011;61691;53.072;6.582;2023-02-28T07:05:03;22.13;;;9.52;;
73456;SDS011;61691;53.072;6.582;2023-02-28T07:07:31;21.83;;;9.32;;
73456;SDS011;61691;53.072;6.582;2023-02-28T07:09:58;23.08;;;10.05;;
73456;SDS011;61691;53.072;6.582;2023-02-28T07:12:25;21.73;;;9.35;;
73456;SDS011;61691;53.072;6.582;2023-02-28T07:14:52;20.75;;;9.02;;
73456;SDS011;61691;53.072;6.582;2023-02-28T07:17:18;21.90;;;9.20;;
73456;SDS011;61691;53.072;6.582;2023-02-28T07:19:45;20.52;;;9.50;;
73456;SDS011;61691;53.072;6.582;2023-02-28T07:22:12;22.05;;;9.60;;
73456;SDS011;61691;53.072;6.582;2023-02-28T07:24:41;21.95;;;10.15;;
73456;SDS011;61691;53.072;6.582;2023-02-28T07:27:08;20.70;;;8.88;;
73456;SDS011;61691;53.072;6.582;2023-02-28T07:29:35;22.70;;;9.48;;
73456;SDS011;61691;53.072;6.582;2023-02-28T07:32:01;21.30;;;8.95;;
73456;SDS011;61691;53.072;6.582;2023-02-28T07:34:28;20.95;;;9.57;;
73456;SDS011;61691;53.072;6.582;2023-02-28T07:36:55;20.70;;;9.38;;
73456;SDS011;61691;53.072;6.582;2023-02-28T07:39:22;21.65;;;9.80;;
73456;SDS011;61691;53.072;6.582;2023-02-28T07:41:49;21.38;;;9.02;;
73456;SDS011;61691;53.072;6.582;2023-02-28T07:44:19;21.98;;;9.50;;
73456;SDS011;61691;53.072;6.582;2023-02-28T07:46:46;21.73;;;9.75;;
73456;SDS011;61691;53.072;6.582;2023-02-28T07:49:13;21.52;;;9.35;;
73456;SDS011;61691;53.072;6.582;2023-02-28T07:51:40;21.83;;;10.10;;
73456;SDS011;61691;53.072;6.582;2023-02-28T07:54:07;22.60;;;8.85;;
73456;SDS011;61691;53.072;6.582;2023-02-28T07:56:34;21.55;;;8.82;;
73456;SDS011;61691;53.072;6.582;2023-02-28T07:59:01;24.58;;;9.52;;
73456;SDS011;61691;53.072;6.582;2023-02-28T08:01:28;22.75;;;9.25;;
73456;SDS011;61691;53.072;6.582;2023-02-28T08:03:55;20.15;;;8.40;;
73456;SDS011;61691;53.072;6.582;2023-02-28T08:06:24;21.67;;;9.80;;
73456;SDS011;61691;53.072;6.582;2023-02-28T08:08:52;24.63;;;9.40;;
73456;SDS011;61691;53.072;6.582;2023-02-28T08:11:19;22.88;;;9.73;;
73456;SDS011;61691;53.072;6.582;2023-02-28T08:13:46;19.42;;;8.15;;
73456;SDS011;61691;53.072;6.582;2023-02-28T08:16:13;20.05;;;8.65;;
73456;SDS011;61691;53.072;6.582;2023-02-28T08:18:49;25.35;;;10.50;;
73456;SDS011;61691;53.072;6.582;2023-02-28T08:21:17;22.58;;;9.38;;
73456;SDS011;61691;53.072;6.582;2023-02-28T08:23:48;21.23;;;8.95;;
73456;SDS011;61691;53.072;6.582;2023-02-28T08:26:17;20.45;;;8.60;;
73456;SDS011;61691;53.072;6.582;2023-02-28T08:28:44;21.70;;;8.40;;
73456;SDS011;61691;53.072;6.582;2023-02-28T08:31:12;21.00;;;8.95;;
73456;SDS011;61691;53.072;6.582;2023-02-28T08:33:41;20.95;;;8.95;;
73456;SDS011;61691;53.072;6.582;2023-02-28T08:36:09;22.48;;;9.85;;
73456;SDS011;61691;53.072;6.582;2023-02-28T08:38:37;20.65;;;8.60;;
73456;SDS011;61691;53.072;6.582;2023-02-28T08:41:05;21.25;;;8.90;;
73456;SDS011;61691;53.072;6.582;2023-02-28T08:43:35;20.67;;;8.70;;
73456;SDS011;61691;53.072;6.582;2023-02-28T08:46:02;21.13;;;8.82;;
73456;SDS011;61691;53.072;6.582;2023-02-28T08:48:30;21.35;;;9.82;;
73456;SDS011;61691;53.072;6.582;2023-02-28T08:51:03;23.13;;;10.55;;
73456;SDS011;61691;53.072;6.582;2023-02-28T08:53:38;22.00;;;10.23;;
73456;SDS011;61691;53.072;6.582;2023-02-28T08:56:07;22.92;;;9.75;;
73456;SDS011;61691;53.072;6.582;2023-02-28T08:58:39;21.67;;;9.65;;
73456;SDS011;61691;53.072;6.582;2023-02-28T09:01:10;20.08;;;9.55;;
73456;SDS011;61691;53.072;6.582;2023-02-28T09:03:39;21.15;;;9.20;;
73456;SDS011;61691;53.072;6.582;2023-02-28T09:06:08;20.10;;;9.35;;
73456;SDS011;61691;53.072;6.582;2023-02-28T09:08:36;21.88;;;9.82;;
73456;SDS011;61691;53.072;6.582;2023-02-28T09:11:03;21.38;;;10.85;;
73456;SDS011;61691;53.072;6.582;2023-02-28T09:13:31;22.58;;;9.90;;
73456;SDS011;61691;53.072;6.582;2023-02-28T09:15:59;21.50;;;9.48;;
73456;SDS011;61691;53.072;6.582;2023-02-28T09:18:27;21.60;;;9.77;;
73456;SDS011;61691;53.072;6.582;2023-02-28T09:20:54;22.45;;;10.20;;
73456;SDS011;61691;53.072;6.582;2023-02-28T09:23:22;20.98;;;9.95;;
73456;SDS011;61691;53.072;6.582;2023-02-28T09:25:50;22.05;;;9.65;;
73456;SDS011;61691;53.072;6.582;2023-02-28T09:28:19;20.77;;;9.00;;
73456;SDS011;61691;53.072;6.582;2023-02-28T09:30:48;23.50;;;10.30;;
73456;SDS011;61691;53.072;6.582;2023-02-28T09:33:17;21.40;;;9.17;;
73456;SDS011;61691;53.072;6.582;2023-02-28T09:38:14;20.92;;;9.05;;
73456;SDS011;61691;53.072;6.582;2023-02-28T09:41:01;20.40;;;8.57;;
73456;SDS011;61691;53.072;6.582;2023-02-28T09:43:34;20.08;;;8.30;;
73456;SDS011;61691;53.072;6.582;2023-02-28T09:46:10;22.02;;;8.60;;
73456;SDS011;61691;53.072;6.582;2023-02-28T09:48:39;21.92;;;9.45;;
73456;SDS011;61691;53.072;6.582;2023-02-28T09:53:49;19.67;;;8.07;;
73456;SDS011;61691;53.072;6.582;2023-02-28T10:09:54;20.13;;;8.32;;
73456;SDS011;61691;53.072;6.582;2023-02-28T10:12:29;21.48;;;7.13;;
73456;SDS011;61691;53.072;6.582;2023-02-28T10:14:57;18.67;;;7.10;;
73456;SDS011;61691;53.072;6.582;2023-02-28T10:17:26;19.88;;;7.55;;
73456;SDS011;61691;53.072;6.582;2023-02-28T10:20:21;18.85;;;5.97;;
73456;SDS011;61691;53.072;6.582;2023-02-28T10:23:03;17.33;;;6.72;;
73456;SDS011;61691;53.072;6.582;2023-02-28T10:25:38;18.77;;;6.07;;
73456;SDS011;61691;53.072;6.582;2023-02-28T10:28:13;17.20;;;5.30;;
73456;SDS011;61691;53.072;6.582;2023-02-28T10:30:42;16.38;;;5.07;;
73456;SDS011;61691;53.072;6.582;2023-02-28T10:33:25;17.05;;;5.40;;
73456;SDS011;61691;53.072;6.582;2023-02-28T10:35:52;18.70;;;5.55;;
73456;SDS011;61691;53.072;6.582;2023-02-28T10:38:23;16.80;;;4.90;;
73456;SDS011;61691;53.072;6.582;2023-02-28T10:41:07;16.50;;;5.50;;
73456;SDS011;61691;53.072;6.582;2023-02-28T10:43:37;16.30;;;5.18;;
73456;SDS011;61691;53.072;6.582;2023-02-28T10:48:44;16.90;;;5.22;;
73456;SDS011;61691;53.072;6.582;2023-02-28T10:51:26;17.17;;;5.00;;
73456;SDS011;61691;53.072;6.582;2023-02-28T10:54:02;15.05;;;4.68;;
73456;SDS011;61691;53.072;6.582;2023-02-28T10:56:30;15.85;;;4.47;;
73456;SDS011;61691;53.072;6.582;2023-02-28T10:59:05;16.77;;;5.03;;
73456;SDS011;61691;53.072;6.582;2023-02-28T11:01:53;14.63;;;4.03;;
73456;SDS011;61691;53.072;6.582;2023-02-28T11:07:00;14.85;;;4.50;;
73456;SDS011;61691;53.072;6.582;2023-02-28T11:09:39;15.88;;;4.63;;
73456;SDS011;61691;53.072;6.582;2023-02-28T11:12:07;14.73;;;4.00;;
73456;SDS011;61691;53.072;6.582;2023-02-28T11:15:05;14.80;;;4.13;;
73456;SDS011;61691;53.072;6.582;2023-02-28T11:20:38;13.63;;;3.78;;
73456;SDS011;61691;53.072;6.582;2023-02-28T11:23:10;15.57;;;4.30;;
73456;SDS011;61691;53.072;6.582;2023-02-28T11:25:40;18.98;;;5.05;;
73456;SDS011;61691;53.072;6.582;2023-02-28T11:28:32;14.70;;;4.30;;
73456;SDS011;61691;53.072;6.582;2023-02-28T11:31:05;15.10;;;4.15;;
73456;SDS011;61691;53.072;6.582;2023-02-28T11:38:47;15.43;;;4.47;;
73456;SDS011;61691;53.072;6.582;2023-02-28T11:41:26;16.60;;;4.97;;
73456;SDS011;61691;53.072;6.582;2023-02-28T11:44:23;17.85;;;4.75;;
73456;SDS011;61691;53.072;6.582;2023-02-28T11:48:10;15.95;;;4.93;;
73456;SDS011;61691;53.072;6.582;2023-02-28T11:50:16;15.98;;;4.60;;
73456;SDS011;61691;53.072;6.582;2023-02-28T11:52:56;16.83;;;5.10;;
73456;SDS011;61691;53.072;6.582;2023-02-28T11:55:28;15.70;;;4.60;;
73456;SDS011;61691;53.072;6.582;2023-02-28T11:58:17;14.23;;;4.03;;
73456;SDS011;61691;53.072;6.582;2023-02-28T12:21:42;15.57;;;4.55;;
73456;SDS011;61691;53.072;6.582;2023-02-28T12:26:53;17.85;;;5.00;;
73456;SDS011;61691;53.072;6.582;2023-02-28T12:29:30;16.52;;;5.20;;
73456;SDS011;61691;53.072;6.582;2023-02-28T12:34:35;17.02;;;5.30;;
73456;SDS011;61691;53.072;6.582;2023-02-28T12:37:09;17.83;;;5.43;;
73456;SDS011;61691;53.072;6.582;2023-02-28T12:39:46;17.70;;;5.45;;
73456;SDS011;61691;53.072;6.582;2023-02-28T12:42:26;15.43;;;4.75;;
73456;SDS011;61691;53.072;6.582;2023-02-28T12:44:58;16.70;;;5.38;;
73456;SDS011;61691;53.072;6.582;2023-02-28T12:47:28;18.02;;;5.85;;
73456;SDS011;61691;53.072;6.582;2023-02-28T12:49:56;15.52;;;5.13;;
73456;SDS011;61691;53.072;6.582;2023-02-28T12:52:35;18.92;;;5.45;;
73456;SDS011;61691;53.072;6.582;2023-02-28T12:55:21;18.02;;;5.40;;
73456;SDS011;61691;53.072;6.582;2023-02-28T13:09:44;16.02;;;5.10;;
73456;SDS011;61691;53.072;6.582;2023-02-28T13:12:19;18.30;;;6.15;;
73456;SDS011;61691;53.072;6.582;2023-02-28T13:14:46;16.85;;;5.93;;
73456;SDS011;61691;53.072;6.582;2023-02-28T13:17:18;17.63;;;6.20;;
73456;SDS011;61691;53.072;6.582;2023-02-28T13:27:48;17.92;;;6.22;;
73456;SDS011;61691;53.072;6.582;2023-02-28T13:38:50;19.80;;;6.22;;
73456;SDS011;61691;53.072;6.582;2023-02-28T13:46:29;17.45;;;5.70;;
73456;SDS011;61691;53.072;6.582;2023-02-28T13:49:17;19.25;;;5.63;;
73456;SDS011;61691;53.072;6.582;2023-02-28T13:51:50;19.75;;;5.60;;
73456;SDS011;61691;53.072;6.582;2023-02-28T14:00:02;16.02;;;4.95;;
73456;SDS011;61691;53.072;6.582;2023-02-28T14:05:30;14.93;;;4.38;;
73456;SDS011;61691;53.072;6.582;2023-02-28T14:08:04;16.23;;;5.15;;
73456;SDS011;61691;53.072;6.582;2023-02-28T14:11:03;16.17;;;4.82;;
73456;SDS011;61691;53.072;6.582;2023-02-28T14:13:38;15.93;;;4.57;;
73456;SDS011;61691;53.072;6.582;2023-02-28T14:16:13;16.20;;;4.60;;
73456;SDS011;61691;53.072;6.582;2023-02-28T14:18:42;15.70;;;4.90;;
73456;SDS011;61691;53.072;6.582;2023-02-28T14:21:27;15.90;;;4.55;;
73456;SDS011;61691;53.072;6.582;2023-02-28T14:32:23;16.20;;;5.10;;
73456;SDS011;61691;53.072;6.582;2023-02-28T14:37:46;16.80;;;5.57;;
73456;SDS011;61691;53.072;6.582;2023-02-28T14:40:16;18.70;;;5.20;;
73456;SDS011;61691;53.072;6.582;2023-02-28T14:42:49;17.73;;;4.90;;
73456;SDS011;61691;53.072;6.582;2023-02-28T14:45:23;16.85;;;5.18;;
73456;SDS011;61691;53.072;6.582;2023-02-28T14:47:50;17.35;;;5.18;;
73456;SDS011;61691;53.072;6.582;2023-02-28T14:50:52;17.50;;;4.90;;
73456;SDS011;61691;53.072;6.582;2023-02-28T14:53:23;14.93;;;4.40;;
73456;SDS011;61691;53.072;6.582;2023-02-28T14:55:54;16.88;;;4.60;;
73456;SDS011;61691;53.072;6.582;2023-02-28T14:58:27;16.70;;;4.60;;
73456;SDS011;61691;53.072;6.582;2023-02-28T15:01:00;17.67;;;5.72;;
73456;SDS011;61691;53.072;6.582;2023-02-28T15:03:35;15.23;;;4.90;;
73456;SDS011;61691;53.072;6.582;2023-02-28T15:06:05;16.58;;;5.35;;
73456;SDS011;61691;53.072;6.582;2023-02-28T15:08:44;18.30;;;6.13;;
73456;SDS011;61691;53.072;6.582;2023-02-28T15:11:16;17.80;;;5.07;;
73456;SDS011;61691;53.072;6.582;2023-02-28T15:13:46;17.33;;;5.25;;
73456;SDS011;61691;53.072;6.582;2023-02-28T15:19:45;15.82;;;5.25;;
73456;SDS011;61691;53.072;6.582;2023-02-28T15:21:57;16.85;;;5.00;;
73456;SDS011;61691;53.072;6.582;2023-02-28T15:24:40;16.92;;;5.05;;
73456;SDS011;61691;53.072;6.582;2023-02-28T15:27:16;16.10;;;5.10;;
73456;SDS011;61691;53.072;6.582;2023-02-28T15:29:49;17.80;;;5.45;;
73456;SDS011;61691;53.072;6.582;2023-02-28T15:32:27;16.63;;;5.25;;
73456;SDS011;61691;53.072;6.582;2023-02-28T15:34:55;18.52;;;6.10;;
73456;SDS011;61691;53.072;6.582;2023-02-28T15:40:10;17.85;;;5.53;;
73456;SDS011;61691;53.072;6.582;2023-02-28T15:42:37;17.63;;;6.00;;
73456;SDS011;61691;53.072;6.582;2023-02-28T15:45:04;17.40;;;5.68;;
73456;SDS011;61691;53.072;6.582;2023-02-28T15:47:31;17.88;;;6.30;;
73456;SDS011;61691;53.072;6.582;2023-02-28T15:50:04;17.02;;;5.95;;
73456;SDS011;61691;53.072;6.582;2023-02-28T15:52:43;18.15;;;5.85;;
73456;SDS011;61691;53.072;6.582;2023-02-28T15:55:12;17.13;;;5.60;;
73456;SDS011;61691;53.072;6.582;2023-02-28T15:57:47;17.83;;;6.20;;
73456;SDS011;61691;53.072;6.582;2023-02-28T16:00:19;17.65;;;5.57;;
73456;SDS011;61691;53.072;6.582;2023-02-28T16:02:48;19.02;;;6.43;;
73456;SDS011;61691;53.072;6.582;2023-02-28T16:05:23;17.38;;;6.43;;
73456;SDS011;61691;53.072;6.582;2023-02-28T16:08:11;16.88;;;6.05;;
73456;SDS011;61691;53.072;6.582;2023-02-28T16:10:40;17.42;;;6.13;;
73456;SDS011;61691;53.072;6.582;2023-02-28T16:13:08;18.70;;;6.28;;
73456;SDS011;61691;53.072;6.582;2023-02-28T16:15:38;17.27;;;5.45;;
73456;SDS011;61691;53.072;6.582;2023-02-28T16:18:12;17.73;;;5.95;;
73456;SDS011;61691;53.072;6.582;2023-02-28T16:20:39;19.50;;;6.63;;
73456;SDS011;61691;53.072;6.582;2023-02-28T16:23:07;18.92;;;6.15;;
73456;SDS011;61691;53.072;6.582;2023-02-28T16:25:42;18.25;;;6.10;;
73456;SDS011;61691;53.072;6.582;2023-02-28T16:28:29;17.92;;;5.88;;
73456;SDS011;61691;53.072;6.582;2023-02-28T16:31:02;15.70;;;5.78;;
73456;SDS011;61691;53.072;6.582;2023-02-28T16:33:32;16.63;;;5.68;;
73456;SDS011;61691;53.072;6.582;2023-02-28T16:36:00;17.90;;;6.85;;
73456;SDS011;61691;53.072;6.582;2023-02-28T16:38:27;17.33;;;6.32;;
73456;SDS011;61691;53.072;6.582;2023-02-28T16:40:55;16.85;;;6.00;;
73456;SDS011;61691;53.072;6.582;2023-02-28T16:43:24;17.17;;;5.53;;
73456;SDS011;61691;53.072;6.582;2023-02-28T16:45:56;17.58;;;6.13;;
73456;SDS011;61691;53.072;6.582;2023-02-28T16:48:27;17.08;;;5.88;;
73456;SDS011;61691;53.072;6.582;2023-02-28T16:50:54;18.92;;;6.32;;
73456;SDS011;61691;53.072;6.582;2023-02-28T16:53:21;17.63;;;6.13;;
73456;SDS011;61691;53.072;6.582;2023-02-28T16:55:48;16.88;;;5.53;;
73456;SDS011;61691;53.072;6.582;2023-02-28T16:58:17;17.75;;;6.05;;
73456;SDS011;61691;53.072;6.582;2023-02-28T17:00:45;16.90;;;6.10;;
73456;SDS011;61691;53.072;6.582;2023-02-28T17:03:30;17.17;;;6.65;;
73456;SDS011;61691;53.072;6.582;2023-02-28T17:05:59;17.00;;;6.82;;
73456;SDS011;61691;53.072;6.582;2023-02-28T17:08:27;17.58;;;6.70;;
73456;SDS011;61691;53.072;6.582;2023-02-28T17:10:55;18.35;;;7.28;;
73456;SDS011;61691;53.072;6.582;2023-02-28T17:13:22;18.73;;;8.27;;
73456;SDS011;61691;53.072;6.582;2023-02-28T17:15:49;19.58;;;8.23;;
73456;SDS011;61691;53.072;6.582;2023-02-28T17:18:17;18.10;;;7.53;;
73456;SDS011;61691;53.072;6.582;2023-02-28T17:20:47;20.95;;;7.93;;
73456;SDS011;61691;53.072;6.582;2023-02-28T17:23:14;19.40;;;8.30;;
73456;SDS011;61691;53.072;6.582;2023-02-28T17:25:42;17.77;;;7.40;;
73456;SDS011;61691;53.072;6.582;2023-02-28T17:28:23;20.63;;;8.15;;